createdAt,value
2019-02-09T00:02:06.186Z,51.47
2019-02-09T00:04:37.918Z,51.30
2019-02-09T00:07:08.167Z,52.90
2019-02-09T00:09:38.435Z,51.53
2019-02-09T00:12:09.191Z,53.00
2019-02-09T00:14:39.357Z,52.87
2019-02-09T00:17:10.228Z,54.27
2019-02-09T00:19:40.485Z,54.10
2019-02-09T00:22:10.980Z,53.97
2019-02-09T00:24:41.216Z,53.90
2019-02-09T00:27:11.623Z,53.93
2019-02-09T00:29:46.287Z,54.27
2019-02-09T00:32:14.049Z,54.20
2019-02-09T00:34:44.299Z,52.90
2019-02-09T00:37:14.787Z,51.70
2019-02-09T00:39:45.111Z,53.80
2019-02-09T00:42:15.556Z,53.20
2019-02-09T00:44:45.835Z,54.63
2019-02-09T00:47:16.741Z,52.27
2019-02-09T00:49:47.022Z,52.93
2019-02-09T00:52:17.480Z,53.40
2019-02-09T00:54:48.650Z,50.37
2019-02-09T00:57:19.322Z,53.07
2019-02-09T00:59:54.200Z,52.63
2019-02-09T01:02:21.603Z,53.10
2019-02-09T01:04:51.893Z,51.67
2019-02-09T01:07:23.306Z,53.80
2019-02-09T01:09:53.550Z,54.23
2019-02-09T01:12:24.049Z,52.43
2019-02-09T01:14:54.315Z,55.10
2019-02-09T01:17:25.089Z,53.13
2019-02-09T01:19:55.383Z,54.07
2019-02-09T01:22:25.664Z,54.20
2019-02-09T01:24:56.403Z,54.27
2019-02-09T01:27:28.612Z,54.97
2019-02-09T01:30:02.642Z,52.67
2019-02-09T01:32:32.740Z,53.63
2019-02-09T01:35:05.228Z,52.50
2019-02-09T01:37:35.484Z,51.67
2019-02-09T01:40:07.616Z,51.17
2019-02-09T01:42:37.872Z,51.90
2019-02-09T01:45:10.714Z,52.33
2019-02-09T01:47:41.122Z,53.43
2019-02-09T01:50:13.140Z,52.67
2019-02-09T01:52:43.430Z,52.40
2019-02-09T01:55:14.698Z,53.37
2019-02-09T01:57:45.259Z,52.67
2019-02-09T02:00:21.137Z,52.57
2019-02-09T02:02:52.202Z,52.50
2019-02-09T02:05:23.606Z,51.27
2019-02-09T02:07:54.049Z,53.27
2019-02-09T02:10:36.710Z,53.50
2019-02-09T02:13:09.059Z,53.03
2019-02-09T02:15:40.784Z,52.27
2019-02-09T02:18:12.236Z,52.17
2019-02-09T02:20:42.762Z,53.07
2019-02-09T02:23:13.057Z,51.77
2019-02-09T02:25:43.787Z,53.70
2019-02-09T02:28:14.075Z,52.17
2019-02-09T02:30:46.412Z,53.83
2019-02-09T02:33:17.600Z,54.57
2019-02-09T02:35:48.196Z,53.10
2019-02-09T02:38:18.466Z,51.37
2019-02-09T02:40:48.769Z,52.23
2019-02-09T02:43:19.132Z,53.20
2019-02-09T02:45:49.449Z,52.57
2019-02-09T02:48:19.923Z,53.13
2019-02-09T02:50:50.292Z,53.20
2019-02-09T02:53:20.609Z,53.00
2019-02-09T02:55:50.884Z,54.50
2019-02-09T02:58:21.320Z,53.63
2019-02-09T03:00:51.603Z,53.33
2019-02-09T03:03:22.093Z,55.33
2019-02-09T03:05:53.402Z,53.77
2019-02-09T03:08:24.031Z,52.27
2019-02-09T03:10:54.278Z,55.33
2019-02-09T03:13:24.574Z,54.53
2019-02-09T03:15:55.998Z,54.23
2019-02-09T03:18:27.352Z,55.67
2019-02-09T03:20:57.885Z,52.77
2019-02-09T03:23:28.217Z,54.73
2019-02-09T03:25:58.959Z,55.47
2019-02-09T03:28:29.203Z,53.70
2019-02-09T03:31:00.954Z,53.20
2019-02-09T03:33:31.553Z,54.37
2019-02-09T03:36:02.182Z,52.37
2019-02-09T03:38:32.454Z,53.80
2019-02-09T03:41:03.055Z,52.60
2019-02-09T03:43:33.286Z,53.63
2019-02-09T03:46:03.803Z,51.53
2019-02-09T03:48:34.065Z,51.80
2019-02-09T03:51:04.349Z,52.30
2019-02-09T03:53:35.121Z,53.43
2019-02-09T03:56:05.566Z,53.97
2019-02-09T03:58:35.993Z,51.33
2019-02-09T04:01:06.393Z,50.37
2019-02-09T04:03:37.671Z,51.53
2019-02-09T04:06:08.307Z,50.93
2019-02-09T04:08:38.748Z,51.80
2019-02-09T04:11:09.204Z,51.13
2019-02-09T04:13:39.459Z,50.97
2019-02-09T04:16:09.721Z,50.70
2019-02-09T04:18:40.433Z,49.03
2019-02-09T04:21:10.656Z,48.00
2019-02-09T04:23:40.831Z,48.77
2019-02-09T04:26:11.668Z,49.17
2019-02-09T04:28:41.916Z,48.43
2019-02-09T04:31:12.975Z,47.17
2019-02-09T04:33:43.925Z,47.40
2019-02-09T04:36:15.206Z,47.97
2019-02-09T04:38:45.420Z,47.73
2019-02-09T04:41:16.051Z,46.67
2019-02-09T04:43:46.287Z,44.87
2019-02-09T04:46:16.470Z,44.90
2019-02-09T04:48:47.026Z,45.40
2019-02-09T04:51:17.284Z,44.63
2019-02-09T04:53:47.526Z,45.90
2019-02-09T04:56:18.318Z,45.07
2019-02-09T04:58:48.550Z,44.57
2019-02-09T05:01:18.812Z,43.80
2019-02-09T05:03:49.595Z,43.10
2019-02-09T05:06:19.840Z,42.30
2019-02-09T05:08:50.636Z,42.47
2019-02-09T05:11:21.061Z,41.97
2019-02-09T05:13:51.716Z,40.67
2019-02-09T05:16:22.002Z,41.43
2019-02-09T05:18:54.926Z,41.60
2019-02-09T05:21:25.166Z,40.87
2019-02-09T05:23:56.013Z,39.47
2019-02-09T05:26:26.247Z,39.93
2019-02-09T05:28:56.466Z,39.60
2019-02-09T05:31:27.151Z,40.43
2019-02-09T05:33:58.308Z,39.37
2019-02-09T05:36:28.556Z,40.03
2019-02-09T05:38:59.166Z,41.43
2019-02-09T05:41:29.368Z,38.47
2019-02-09T05:44:00.243Z,39.40
2019-02-09T05:46:30.471Z,39.07
2019-02-09T05:49:00.724Z,37.00
2019-02-09T05:51:31.027Z,37.20
2019-02-09T05:54:01.412Z,37.13
2019-02-09T05:56:31.944Z,37.83
2019-02-09T05:59:02.198Z,36.70
2019-02-09T06:01:32.766Z,36.23
2019-02-09T06:04:03.794Z,36.13
2019-02-09T06:06:34.090Z,37.60
2019-02-09T06:09:06.755Z,36.33
2019-02-09T06:11:37.252Z,36.70
2019-02-09T06:14:07.493Z,37.03
2019-02-09T06:16:38.028Z,36.10
2019-02-09T06:19:08.302Z,35.57
2019-02-09T06:21:38.768Z,34.60
2019-02-09T06:24:09.054Z,35.70
2019-02-09T06:26:39.505Z,35.83
2019-02-09T06:29:09.901Z,36.70
2019-02-09T06:31:42.126Z,37.73
2019-02-09T06:34:12.722Z,36.13
2019-02-09T06:36:43.262Z,38.83
2019-02-09T06:39:13.420Z,36.77
2019-02-09T06:41:43.923Z,37.17
2019-02-09T06:44:14.150Z,37.93
2019-02-09T06:46:44.669Z,38.50
2019-02-09T06:49:15.041Z,38.07
2019-02-09T06:51:45.861Z,38.43
2019-02-09T06:54:16.221Z,38.13
2019-02-09T06:56:46.613Z,38.90
2019-02-09T06:59:16.872Z,39.43
2019-02-09T07:01:48.675Z,39.37
2019-02-09T07:04:19.490Z,41.40
2019-02-09T07:06:50.092Z,41.27
2019-02-09T07:09:20.329Z,43.13
2019-02-09T07:11:50.849Z,42.47
2019-02-09T07:14:21.119Z,43.17
2019-02-09T07:16:51.753Z,44.47
2019-02-09T07:19:21.983Z,42.97
2019-02-09T07:21:52.247Z,45.37
2019-02-09T07:24:22.690Z,46.70
2019-02-09T07:26:53.203Z,46.07
2019-02-09T07:29:24.541Z,46.30
2019-02-09T07:31:56.607Z,47.10
2019-02-09T07:34:27.509Z,46.87
2019-02-09T07:36:57.897Z,49.53
2019-02-09T07:39:28.305Z,48.27
2019-02-09T07:41:58.600Z,49.60
2019-02-09T07:44:28.985Z,47.40
2019-02-09T07:46:59.244Z,48.30
2019-02-09T07:49:29.821Z,48.37
2019-02-09T07:52:00.071Z,50.97
2019-02-09T07:54:30.371Z,48.17
2019-02-09T07:57:01.235Z,48.80
2019-02-09T07:59:31.483Z,50.27
2019-02-09T08:02:04.688Z,49.67
2019-02-09T08:04:34.300Z,48.80
2019-02-09T08:07:04.655Z,48.47
2019-02-09T08:09:35.082Z,50.47
2019-02-09T08:12:06.105Z,48.27
2019-02-09T08:14:36.335Z,49.50
2019-02-09T08:17:06.617Z,49.77
2019-02-09T08:19:37.331Z,48.87
2019-02-09T08:22:07.746Z,48.53
2019-02-09T08:24:38.090Z,47.97
2019-02-09T08:27:08.336Z,48.70
2019-02-09T08:29:38.606Z,49.63
2019-02-09T08:32:12.748Z,47.83
2019-02-09T08:34:42.966Z,45.70
2019-02-09T08:37:13.478Z,47.90
2019-02-09T08:39:43.759Z,46.80
2019-02-09T08:42:14.592Z,47.40
2019-02-09T08:44:44.970Z,46.60
2019-02-09T08:47:15.608Z,46.83
2019-02-09T08:49:45.858Z,47.87
2019-02-09T08:53:28.284Z,48.03
2019-02-09T08:55:58.562Z,46.47
2019-02-09T08:58:29.310Z,45.90
2019-02-09T09:00:59.491Z,45.60
2019-02-09T09:03:29.766Z,44.77
2019-02-09T09:06:00.741Z,46.53
2019-02-09T09:08:30.962Z,44.87
2019-02-09T09:11:01.634Z,44.80
2019-02-09T09:13:31.902Z,42.63
2019-02-09T09:16:05.610Z,40.90
2019-02-09T09:18:35.846Z,41.83
2019-02-09T09:21:06.517Z,42.33
2019-02-09T09:23:36.776Z,40.17
2019-02-09T09:26:07.584Z,39.43
2019-02-09T09:28:37.936Z,39.67
2019-02-09T09:31:09.226Z,40.17
2019-02-09T09:33:40.036Z,37.47
2019-02-09T09:36:11.252Z,38.40
2019-02-09T09:38:41.480Z,38.73
2019-02-09T09:41:11.972Z,37.77
2019-02-09T09:43:42.344Z,37.03
2019-02-09T09:46:13.645Z,36.73
2019-02-09T09:48:43.890Z,35.37
2019-02-09T09:51:14.696Z,36.90
2019-02-09T09:53:44.923Z,34.07
2019-02-09T09:56:15.453Z,42.27
2019-02-09T09:58:45.693Z,37.30
2019-02-09T10:01:16.200Z,34.27
2019-02-09T10:03:46.481Z,33.40
2019-02-09T10:06:17.370Z,32.70
2019-02-09T10:08:47.615Z,32.73
2019-02-09T10:11:18.170Z,31.40
2019-02-09T10:13:48.406Z,30.73
2019-02-09T10:16:18.679Z,31.77
2019-02-09T10:18:49.004Z,29.57
2019-02-09T10:21:20.414Z,28.67
2019-02-09T10:23:50.978Z,27.10
2019-02-09T10:26:21.274Z,26.73
2019-02-09T10:28:51.712Z,25.27
2019-02-09T10:31:21.955Z,24.30
2019-02-09T10:33:53.406Z,24.03
2019-02-09T10:36:24.117Z,24.03
2019-02-09T10:38:54.664Z,25.00
2019-02-09T10:41:24.928Z,23.63
2019-02-09T10:43:55.522Z,22.17
2019-02-09T10:46:26.091Z,23.00
2019-02-09T10:48:56.880Z,23.43
2019-02-09T10:51:27.138Z,21.83
2019-02-09T10:53:57.928Z,24.50
2019-02-09T10:56:28.327Z,23.83
2019-02-09T10:58:58.697Z,22.17
2019-02-09T11:01:28.946Z,21.60
2019-02-09T11:03:59.433Z,22.60
2019-02-09T11:06:30.247Z,22.10
2019-02-09T11:09:00.800Z,22.23
2019-02-09T11:11:32.809Z,22.80
2019-02-09T11:14:03.396Z,21.97
2019-02-09T11:16:33.665Z,22.53
2019-02-09T11:19:04.487Z,22.37
2019-02-09T11:21:34.925Z,21.47
2019-02-09T11:24:06.129Z,22.93
2019-02-09T11:26:36.389Z,22.03
2019-02-09T11:29:06.687Z,21.83
2019-02-09T11:31:39.211Z,22.37
2019-02-09T11:34:09.665Z,21.23
2019-02-09T11:36:40.917Z,21.47
2019-02-09T11:39:11.495Z,21.50
2019-02-09T11:41:42.326Z,22.10
2019-02-09T11:44:12.703Z,22.20
2019-02-09T11:46:43.353Z,22.50
2019-02-09T11:49:13.607Z,22.43
2019-02-09T11:51:44.405Z,23.77
2019-02-09T11:54:14.849Z,21.43
2019-02-09T11:56:45.511Z,22.13
2019-02-09T11:59:15.942Z,23.13
2019-02-09T12:01:46.505Z,23.17
2019-02-09T12:04:16.743Z,22.87
2019-02-09T12:06:48.000Z,23.30
2019-02-09T12:09:18.216Z,22.50
2019-02-09T12:11:48.939Z,22.43
2019-02-09T12:14:19.211Z,23.50
2019-02-09T12:16:49.530Z,23.67
2019-02-09T12:19:19.790Z,23.93
2019-02-09T12:21:50.103Z,23.53
2019-02-09T12:24:20.375Z,24.63
2019-02-09T12:26:51.507Z,23.87
2019-02-09T12:29:21.908Z,22.57
2019-02-09T12:31:52.560Z,24.23
2019-02-09T12:34:22.795Z,23.87
2019-02-09T12:36:53.624Z,23.47
2019-02-09T12:39:23.874Z,23.10
2019-02-09T12:41:54.377Z,23.83
2019-02-09T12:44:24.627Z,22.23
2019-02-09T12:46:55.123Z,23.20
2019-02-09T12:49:25.430Z,23.13
2019-02-09T12:51:55.878Z,23.07
2019-02-09T12:54:26.134Z,21.53
2019-02-09T12:56:56.658Z,21.37
2019-02-09T12:59:27.117Z,22.23
2019-02-09T13:01:57.975Z,22.33
2019-02-09T13:04:28.522Z,21.90
2019-02-09T13:07:00.071Z,20.53
2019-02-09T13:09:30.354Z,20.90
2019-02-09T13:12:00.674Z,21.53
2019-02-09T13:14:31.258Z,21.03
2019-02-09T13:17:01.535Z,21.57
2019-02-09T13:19:32.083Z,20.80
2019-02-09T13:22:02.422Z,19.80
2019-02-09T13:24:33.127Z,19.97
2019-02-09T13:27:04.566Z,19.83
2019-02-09T13:29:35.202Z,21.20
2019-02-09T13:32:05.562Z,21.40
2019-02-09T13:34:35.819Z,22.37
2019-02-09T13:37:06.622Z,22.40
2019-02-09T13:39:36.874Z,23.00
2019-02-09T13:42:08.006Z,21.97
2019-02-09T13:44:38.239Z,23.43
2019-02-09T13:47:08.491Z,23.17
2019-02-09T13:49:39.032Z,23.00
2019-02-09T13:52:09.399Z,23.33
2019-02-09T13:54:39.924Z,23.43
2019-02-09T13:57:10.198Z,23.43
2019-02-09T13:59:40.462Z,23.70
2019-02-09T14:02:11.319Z,24.07
2019-02-09T14:04:41.581Z,24.80
2019-02-09T14:07:12.054Z,24.47
2019-02-09T14:09:42.314Z,24.07
2019-02-09T14:12:12.804Z,24.30
2019-02-09T14:14:42.993Z,24.47
2019-02-09T14:17:13.607Z,25.13
2019-02-09T14:19:43.848Z,25.23
2019-02-09T14:22:14.446Z,25.03
2019-02-09T14:24:44.826Z,23.67
2019-02-09T14:27:17.515Z,24.30
2019-02-09T14:29:47.997Z,24.70
2019-02-09T14:32:18.886Z,24.53
2019-02-09T14:34:49.210Z,24.17
2019-02-09T14:37:20.251Z,24.60
2019-02-09T14:39:50.506Z,25.13
2019-02-09T14:42:20.758Z,23.70
2019-02-09T14:44:51.878Z,24.10
2019-02-09T14:47:23.224Z,24.53
2019-02-09T14:49:54.120Z,23.97
2019-02-09T14:52:24.301Z,23.20
2019-02-09T14:54:54.570Z,24.07
2019-02-09T14:57:25.097Z,24.37
2019-02-09T14:59:55.381Z,24.03
2019-02-09T15:02:26.037Z,23.97
2019-02-09T15:04:56.239Z,23.93
2019-02-09T15:07:27.217Z,24.23
2019-02-09T15:09:57.474Z,22.17
2019-02-09T15:12:27.736Z,23.63
2019-02-09T15:14:58.509Z,23.27
2019-02-09T15:17:28.812Z,22.13
2019-02-09T15:20:02.465Z,23.23
2019-02-09T15:22:32.863Z,22.97
2019-02-09T15:25:03.380Z,22.97
2019-02-09T15:27:35.009Z,23.50
2019-02-09T15:30:07.906Z,23.53
2019-02-09T15:32:38.188Z,22.17
2019-02-09T15:35:10.747Z,22.67
2019-02-09T15:37:41.374Z,22.13
2019-02-09T15:40:14.450Z,23.50
2019-02-09T15:42:44.947Z,23.37
2019-02-09T15:45:17.219Z,23.13
2019-02-09T15:47:47.555Z,23.10
2019-02-09T15:50:18.792Z,22.37
2019-02-09T15:52:49.945Z,22.80
2019-02-09T15:55:21.142Z,21.97
2019-02-09T15:57:51.690Z,20.97
2019-02-09T16:00:24.643Z,21.07
2019-02-09T16:02:55.591Z,22.43
2019-02-09T16:05:25.911Z,21.30
2019-02-09T16:07:57.144Z,21.97
2019-02-09T16:10:27.584Z,21.47
2019-02-09T16:12:58.167Z,21.67
2019-02-09T16:15:28.589Z,21.67
2019-02-09T16:17:59.549Z,21.73
2019-02-09T16:20:29.820Z,21.83
2019-02-09T16:23:00.301Z,22.73
2019-02-09T16:25:30.567Z,22.73
2019-02-09T16:28:01.663Z,23.47
2019-02-09T16:30:31.964Z,22.80
2019-02-09T16:33:02.412Z,23.10
2019-02-09T16:35:33.027Z,22.33
2019-02-09T16:38:04.708Z,21.53
2019-02-09T16:40:35.108Z,22.57
2019-02-09T16:43:06.759Z,21.83
2019-02-09T16:45:37.219Z,23.27
2019-02-09T16:48:08.518Z,22.97
2019-02-09T16:50:38.789Z,23.03
2019-02-09T16:53:09.424Z,22.70
2019-02-09T16:55:39.673Z,23.23
2019-02-09T16:58:10.150Z,22.60
2019-02-09T17:00:41.761Z,23.23
2019-02-09T17:03:13.058Z,24.10
2019-02-09T17:05:43.577Z,23.03
2019-02-09T17:08:15.663Z,22.07
2019-02-09T17:10:45.934Z,22.33
2019-02-09T17:13:16.402Z,23.87
2019-02-09T17:15:46.932Z,22.97
2019-02-09T17:18:17.469Z,23.33
2019-02-09T17:20:47.770Z,22.90
2019-02-09T17:23:18.564Z,24.10
2019-02-09T17:25:48.810Z,23.63
2019-02-09T17:28:20.224Z,23.60
2019-02-09T17:30:50.566Z,22.87
2019-02-09T17:33:20.943Z,22.87
2019-02-09T17:35:51.219Z,22.93
2019-02-09T17:38:21.998Z,24.00
2019-02-09T17:40:52.277Z,22.60
2019-02-09T17:43:23.242Z,22.23
2019-02-09T17:45:57.003Z,22.93
2019-02-09T17:48:27.502Z,23.47
2019-02-09T17:50:57.735Z,23.43
2019-02-09T17:53:28.585Z,23.10
2019-02-09T17:55:58.982Z,22.60
2019-02-09T17:58:29.644Z,21.67
2019-02-09T18:01:20.046Z,20.50
2019-02-09T18:03:50.634Z,21.30
2019-02-09T18:06:21.281Z,21.07
2019-02-09T18:08:51.727Z,22.10
2019-02-09T18:11:21.960Z,21.27
2019-02-09T18:13:52.449Z,21.30
2019-02-09T18:16:22.849Z,22.00
2019-02-09T18:18:53.411Z,21.67
2019-02-09T18:21:23.651Z,23.07
2019-02-09T18:23:54.258Z,22.33
2019-02-09T18:26:24.444Z,21.93
2019-02-09T18:28:58.410Z,21.10
2019-02-09T18:31:28.623Z,21.47
2019-02-09T18:33:59.137Z,21.63
2019-02-09T18:36:29.378Z,21.07
2019-02-09T18:39:00.199Z,20.27
2019-02-09T18:41:30.435Z,20.20
2019-02-09T18:44:00.755Z,18.83
2019-02-09T18:46:31.187Z,20.13
2019-02-09T18:49:01.639Z,19.90
2019-02-09T18:51:32.227Z,20.43
2019-02-09T18:54:02.480Z,19.40
2019-02-09T18:56:32.763Z,18.97
2019-02-09T18:59:03.518Z,20.87
2019-02-09T19:01:33.775Z,20.80
2019-02-09T19:04:04.260Z,20.07
2019-02-09T19:06:34.582Z,19.30
2019-02-09T19:09:08.331Z,21.60
2019-02-09T19:11:39.273Z,20.03
2019-02-09T19:14:10.081Z,19.70
2019-02-09T19:16:40.679Z,19.97
2019-02-09T19:19:11.614Z,20.93
2019-02-09T19:21:41.794Z,20.57
2019-02-09T19:24:12.507Z,21.50
2019-02-09T19:26:42.761Z,20.47
2019-02-09T19:29:14.166Z,20.43
2019-02-09T19:31:44.431Z,20.57
2019-02-09T19:34:15.219Z,20.50
2019-02-09T19:36:45.549Z,20.93
2019-02-09T19:39:16.906Z,19.80
2019-02-09T19:41:47.175Z,20.70
2019-02-09T19:44:17.974Z,19.93
2019-02-09T19:46:49.441Z,19.83
2019-02-09T19:49:19.929Z,21.10
2019-02-09T19:51:50.181Z,20.63
2019-02-09T19:54:20.675Z,20.13
2019-02-09T19:56:50.929Z,20.20
2019-02-09T19:59:21.429Z,20.07
2019-02-09T20:01:51.691Z,19.47
2019-02-09T20:04:22.173Z,20.37
2019-02-09T20:06:52.431Z,19.23
2019-02-09T20:09:23.546Z,21.30
2019-02-09T20:11:53.806Z,20.17
2019-02-09T20:14:24.242Z,18.70
2019-02-09T20:16:54.410Z,21.67
2019-02-09T20:19:25.058Z,21.57
2019-02-09T20:21:55.421Z,20.70
2019-02-09T20:24:25.710Z,20.10
2019-02-09T20:26:56.269Z,21.97
2019-02-09T20:29:27.106Z,20.63
2019-02-09T20:31:57.579Z,22.77
2019-02-09T20:34:27.855Z,20.33
2019-02-09T20:36:58.110Z,22.07
2019-02-09T20:39:29.313Z,21.50
2019-02-09T20:41:59.595Z,20.40
2019-02-09T20:44:29.934Z,21.93
2019-02-09T20:47:00.564Z,22.40
2019-02-09T20:49:30.892Z,22.07
2019-02-09T20:52:01.160Z,20.73
2019-02-09T20:54:31.846Z,21.70
2019-02-09T20:57:02.038Z,22.63
2019-02-09T20:59:32.274Z,23.03
2019-02-09T21:02:02.820Z,23.03
2019-02-09T21:04:33.066Z,23.37
2019-02-09T21:07:03.370Z,22.70
2019-02-09T21:09:34.107Z,23.97
2019-02-09T21:12:04.357Z,23.93
2019-02-09T21:14:34.656Z,23.07
2019-02-09T21:17:05.146Z,22.93
2019-02-09T21:19:35.470Z,23.57
2019-02-09T21:22:06.165Z,23.20
2019-02-09T21:24:36.450Z,23.10
2019-02-09T21:27:06.889Z,24.20
2019-02-09T21:29:38.350Z,23.40
2019-02-09T21:32:08.842Z,24.27
2019-02-09T21:34:39.386Z,23.57
2019-02-09T21:37:09.647Z,24.00
2019-02-09T21:39:40.448Z,23.80
2019-02-09T21:42:10.706Z,24.17
2019-02-09T21:44:41.296Z,24.37
2019-02-09T21:47:11.556Z,23.93
2019-02-09T21:49:42.292Z,24.10
2019-02-09T21:52:12.584Z,23.93
2019-02-09T21:54:43.040Z,24.40
2019-02-09T21:57:13.275Z,24.17
2019-02-09T21:59:43.605Z,23.97
2019-02-09T22:02:14.293Z,24.93
2019-02-09T22:04:44.548Z,24.90
2019-02-09T22:07:15.350Z,26.53
2019-02-09T22:09:45.966Z,24.90
2019-02-09T22:12:16.469Z,24.90
2019-02-09T22:14:47.141Z,24.73
2019-02-09T22:17:18.167Z,24.17
2019-02-09T22:19:48.490Z,24.13
2019-02-09T22:22:18.772Z,25.43
2019-02-09T22:24:49.520Z,25.10
2019-02-09T22:27:20.124Z,24.57
2019-02-09T22:29:52.349Z,24.00
2019-02-09T22:32:23.097Z,24.10
2019-02-09T22:34:53.521Z,24.67
2019-02-09T22:37:23.831Z,24.67
2019-02-09T22:39:55.012Z,24.13
2019-02-09T22:42:25.395Z,23.73
2019-02-09T22:44:55.597Z,23.40
2019-02-09T22:47:26.039Z,24.10
2019-02-09T22:49:56.507Z,24.40
2019-02-09T22:52:26.763Z,24.03
2019-02-09T22:54:57.207Z,24.97
2019-02-09T22:57:27.485Z,25.10
2019-02-09T22:59:57.753Z,25.13
2019-02-09T23:02:28.593Z,23.73
2019-02-09T23:05:07.334Z,24.17
2019-02-09T23:07:38.191Z,23.03
2019-02-09T23:10:12.130Z,24.50
2019-02-09T23:12:48.342Z,24.10
2019-02-09T23:15:14.631Z,24.27
2019-02-09T23:17:45.535Z,23.87
2019-02-09T23:20:15.784Z,24.47
2019-02-09T23:22:46.585Z,23.77
2019-02-09T23:25:17.047Z,23.23
2019-02-09T23:27:47.369Z,24.07
2019-02-09T23:30:18.091Z,24.93
2019-02-09T23:32:48.778Z,25.77
2019-02-09T23:35:19.537Z,24.50
2019-02-09T23:37:49.815Z,23.80
2019-02-09T23:40:21.181Z,24.80
2019-02-09T23:42:51.557Z,24.13
2019-02-09T23:45:22.285Z,24.40
2019-02-09T23:47:52.559Z,24.33
2019-02-09T23:50:23.333Z,24.97
2019-02-09T23:52:53.707Z,25.63
2019-02-09T23:55:24.341Z,24.50
2019-02-09T23:57:54.584Z,25.10
